sensor_id;sensor_type;location;lat;lon;timestamp;P1;durP1;ratioP1;P2;durP2;ratioP2
42346;SDS011;75728;51.856;6.314;2024-02-16T00:01:01;1.35;;;0.40;;
42346;SDS011;75728;51.856;6.314;2024-02-16T00:03:27;1.00;;;0.50;;
42346;SDS011;75728;51.856;6.314;2024-02-16T00:05:53;1.10;;;0.40;;
42346;SDS011;75728;51.856;6.314;2024-02-16T00:08:19;1.30;;;0.50;;
42346;SDS011;75728;51.856;6.314;2024-02-16T00:10:45;0.98;;;0.40;;
42346;SDS011;75728;51.856;6.314;2024-02-16T00:13:12;0.82;;;0.22;;
42346;SDS011;75728;51.856;6.314;2024-02-16T00:15:38;0.93;;;0.32;;
42346;SDS011;75728;51.856;6.314;2024-02-16T00:18:04;1.13;;;0.32;;
42346;SDS011;75728;51.856;6.314;2024-02-16T00:20:30;0.50;;;0.30;;
42346;SDS011;75728;51.856;6.314;2024-02-16T00:22:56;2.70;;;0.52;;
42346;SDS011;75728;51.856;6.314;2024-02-16T00:25:22;1.17;;;0.40;;
42346;SDS011;75728;51.856;6.314;2024-02-16T00:27:48;0.55;;;0.30;;
42346;SDS011;75728;51.856;6.314;2024-02-16T00:30:14;0.77;;;0.22;;
42346;SDS011;75728;51.856;6.314;2024-02-16T00:32:42;1.25;;;0.50;;
42346;SDS011;75728;51.856;6.314;2024-02-16T00:35:10;0.93;;;0.30;;
42346;SDS011;75728;51.856;6.314;2024-02-16T00:37:36;0.85;;;0.20;;
42346;SDS011;75728;51.856;6.314;2024-02-16T00:40:03;0.65;;;0.30;;
42346;SDS011;75728;51.856;6.314;2024-02-16T00:42:29;1.30;;;0.25;;
42346;SDS011;75728;51.856;6.314;2024-02-16T00:44:56;1.00;;;0.45;;
42346;SDS011;75728;51.856;6.314;2024-02-16T00:47:22;0.90;;;0.32;;
42346;SDS011;75728;51.856;6.314;2024-02-16T00:49:48;1.05;;;0.47;;
42346;SDS011;75728;51.856;6.314;2024-02-16T00:52:14;1.75;;;0.22;;
42346;SDS011;75728;51.856;6.314;2024-02-16T00:54:40;1.85;;;0.40;;
42346;SDS011;75728;51.856;6.314;2024-02-16T00:57:05;1.48;;;0.40;;
42346;SDS011;75728;51.856;6.314;2024-02-16T00:59:31;0.30;;;0.17;;
42346;SDS011;75728;51.856;6.314;2024-02-16T01:01:57;0.95;;;0.40;;
42346;SDS011;75728;51.856;6.314;2024-02-16T01:04:23;1.40;;;0.30;;
42346;SDS011;75728;51.856;6.314;2024-02-16T01:06:48;1.02;;;0.40;;
42346;SDS011;75728;51.856;6.314;2024-02-16T01:09:15;1.38;;;0.30;;
42346;SDS011;75728;51.856;6.314;2024-02-16T01:11:41;1.23;;;0.60;;
42346;SDS011;75728;51.856;6.314;2024-02-16T01:14:07;0.50;;;0.30;;
42346;SDS011;75728;51.856;6.314;2024-02-16T01:16:33;0.88;;;0.30;;
42346;SDS011;75728;51.856;6.314;2024-02-16T01:18:59;0.60;;;0.30;;
42346;SDS011;75728;51.856;6.314;2024-02-16T01:21:24;3.00;;;0.50;;
42346;SDS011;75728;51.856;6.314;2024-02-16T01:23:50;1.17;;;0.30;;
42346;SDS011;75728;51.856;6.314;2024-02-16T01:26:16;0.98;;;0.40;;
42346;SDS011;75728;51.856;6.314;2024-02-16T01:28:41;0.93;;;0.40;;
42346;SDS011;75728;51.856;6.314;2024-02-16T01:31:07;0.90;;;0.25;;
42346;SDS011;75728;51.856;6.314;2024-02-16T01:33:36;1.02;;;0.30;;
42346;SDS011;75728;51.856;6.314;2024-02-16T01:36:02;1.10;;;0.50;;
42346;SDS011;75728;51.856;6.314;2024-02-16T01:38:28;0.75;;;0.30;;
42346;SDS011;75728;51.856;6.314;2024-02-16T01:40:54;0.80;;;0.40;;
42346;SDS011;75728;51.856;6.314;2024-02-16T01:43:20;0.50;;;0.30;;
42346;SDS011;75728;51.856;6.314;2024-02-16T01:45:46;1.35;;;0.40;;
42346;SDS011;75728;51.856;6.314;2024-02-16T01:48:12;1.30;;;0.35;;
42346;SDS011;75728;51.856;6.314;2024-02-16T01:50:39;0.70;;;0.30;;
42346;SDS011;75728;51.856;6.314;2024-02-16T01:53:09;2.08;;;0.40;;
42346;SDS011;75728;51.856;6.314;2024-02-16T01:55:36;1.42;;;0.50;;
42346;SDS011;75728;51.856;6.314;2024-02-16T01:58:01;0.95;;;0.30;;
42346;SDS011;75728;51.856;6.314;2024-02-16T02:00:28;0.57;;;0.30;;
42346;SDS011;75728;51.856;6.314;2024-02-16T02:02:53;1.75;;;0.50;;
42346;SDS011;75728;51.856;6.314;2024-02-16T02:05:19;1.75;;;0.40;;
42346;SDS011;75728;51.856;6.314;2024-02-16T02:07:45;0.90;;;0.30;;
42346;SDS011;75728;51.856;6.314;2024-02-16T02:10:10;0.52;;;0.38;;
42346;SDS011;75728;51.856;6.314;2024-02-16T02:12:38;1.15;;;0.50;;
42346;SDS011;75728;51.856;6.314;2024-02-16T02:15:04;0.73;;;0.32;;
42346;SDS011;75728;51.856;6.314;2024-02-16T02:17:30;0.82;;;0.30;;
42346;SDS011;75728;51.856;6.314;2024-02-16T02:19:56;1.27;;;0.50;;
42346;SDS011;75728;51.856;6.314;2024-02-16T02:22:21;2.15;;;0.25;;
42346;SDS011;75728;51.856;6.314;2024-02-16T02:24:47;0.68;;;0.40;;
42346;SDS011;75728;51.856;6.314;2024-02-16T02:27:16;0.50;;;0.30;;
42346;SDS011;75728;51.856;6.314;2024-02-16T02:29:42;0.93;;;0.35;;
42346;SDS011;75728;51.856;6.314;2024-02-16T02:32:09;0.82;;;0.20;;
42346;SDS011;75728;51.856;6.314;2024-02-16T02:34:35;1.10;;;0.30;;
42346;SDS011;75728;51.856;6.314;2024-02-16T02:37:03;0.77;;;0.40;;
42346;SDS011;75728;51.856;6.314;2024-02-16T02:39:29;0.75;;;0.30;;
42346;SDS011;75728;51.856;6.314;2024-02-16T02:41:55;0.60;;;0.30;;
42346;SDS011;75728;51.856;6.314;2024-02-16T02:44:22;0.43;;;0.30;;
42346;SDS011;75728;51.856;6.314;2024-02-16T02:46:51;1.08;;;0.30;;
42346;SDS011;75728;51.856;6.314;2024-02-16T02:49:18;0.75;;;0.30;;
42346;SDS011;75728;51.856;6.314;2024-02-16T02:51:43;1.65;;;0.40;;
42346;SDS011;75728;51.856;6.314;2024-02-16T02:54:09;0.93;;;0.30;;
42346;SDS011;75728;51.856;6.314;2024-02-16T02:56:35;3.13;;;0.30;;
42346;SDS011;75728;51.856;6.314;2024-02-16T02:59:01;0.52;;;0.30;;
42346;SDS011;75728;51.856;6.314;2024-02-16T03:01:27;0.45;;;0.20;;
42346;SDS011;75728;51.856;6.314;2024-02-16T03:03:53;0.88;;;0.40;;
42346;SDS011;75728;51.856;6.314;2024-02-16T03:06:19;1.15;;;0.32;;
42346;SDS011;75728;51.856;6.314;2024-02-16T03:08:45;0.60;;;0.40;;
42346;SDS011;75728;51.856;6.314;2024-02-16T03:11:10;0.88;;;0.40;;
42346;SDS011;75728;51.856;6.314;2024-02-16T03:13:36;1.27;;;0.40;;
42346;SDS011;75728;51.856;6.314;2024-02-16T03:16:02;1.48;;;0.35;;
42346;SDS011;75728;51.856;6.314;2024-02-16T03:18:31;1.85;;;0.30;;
42346;SDS011;75728;51.856;6.314;2024-02-16T03:20:58;1.58;;;0.40;;
42346;SDS011;75728;51.856;6.314;2024-02-16T03:23:23;1.58;;;0.40;;
42346;SDS011;75728;51.856;6.314;2024-02-16T03:25:49;0.75;;;0.40;;
42346;SDS011;75728;51.856;6.314;2024-02-16T03:28:15;0.55;;;0.22;;
42346;SDS011;75728;51.856;6.314;2024-02-16T03:30:41;1.40;;;0.40;;
42346;SDS011;75728;51.856;6.314;2024-02-16T03:33:08;0.68;;;0.30;;
42346;SDS011;75728;51.856;6.314;2024-02-16T03:35:34;1.00;;;0.40;;
42346;SDS011;75728;51.856;6.314;2024-02-16T03:38:01;2.60;;;0.40;;
42346;SDS011;75728;51.856;6.314;2024-02-16T03:40:28;1.85;;;0.80;;
42346;SDS011;75728;51.856;6.314;2024-02-16T03:42:53;0.82;;;0.30;;
42346;SDS011;75728;51.856;6.314;2024-02-16T03:45:19;1.15;;;0.40;;
42346;SDS011;75728;51.856;6.314;2024-02-16T03:47:46;0.57;;;0.30;;
42346;SDS011;75728;51.856;6.314;2024-02-16T03:50:13;0.77;;;0.30;;
42346;SDS011;75728;51.856;6.314;2024-02-16T03:52:39;0.60;;;0.30;;
42346;SDS011;75728;51.856;6.314;2024-02-16T03:55:05;1.67;;;0.30;;
42346;SDS011;75728;51.856;6.314;2024-02-16T03:57:31;1.33;;;0.60;;
42346;SDS011;75728;51.856;6.314;2024-02-16T03:59:57;1.20;;;0.30;;
42346;SDS011;75728;51.856;6.314;2024-02-16T04:02:22;3.47;;;0.43;;
42346;SDS011;75728;51.856;6.314;2024-02-16T04:04:48;1.17;;;0.32;;
42346;SDS011;75728;51.856;6.314;2024-02-16T04:07:14;0.77;;;0.43;;
42346;SDS011;75728;51.856;6.314;2024-02-16T04:09:39;0.70;;;0.40;;
42346;SDS011;75728;51.856;6.314;2024-02-16T04:12:05;1.02;;;0.40;;
42346;SDS011;75728;51.856;6.314;2024-02-16T04:14:31;1.95;;;0.63;;
42346;SDS011;75728;51.856;6.314;2024-02-16T04:16:58;0.52;;;0.30;;
42346;SDS011;75728;51.856;6.314;2024-02-16T04:19:25;1.52;;;0.88;;
42346;SDS011;75728;51.856;6.314;2024-02-16T04:21:51;0.80;;;0.40;;
42346;SDS011;75728;51.856;6.314;2024-02-16T04:24:17;0.88;;;0.40;;
42346;SDS011;75728;51.856;6.314;2024-02-16T04:26:43;0.85;;;0.30;;
42346;SDS011;75728;51.856;6.314;2024-02-16T04:29:08;0.43;;;0.30;;
42346;SDS011;75728;51.856;6.314;2024-02-16T04:31:34;0.75;;;0.38;;
42346;SDS011;75728;51.856;6.314;2024-02-16T04:34:00;0.90;;;0.38;;
42346;SDS011;75728;51.856;6.314;2024-02-16T04:36:26;0.38;;;0.20;;
42346;SDS011;75728;51.856;6.314;2024-02-16T04:38:52;0.65;;;0.25;;
42346;SDS011;75728;51.856;6.314;2024-02-16T04:41:19;1.10;;;0.30;;
42346;SDS011;75728;51.856;6.314;2024-02-16T04:43:45;1.58;;;0.32;;
42346;SDS011;75728;51.856;6.314;2024-02-16T04:46:14;1.70;;;0.40;;
42346;SDS011;75728;51.856;6.314;2024-02-16T04:48:40;2.45;;;0.43;;
42346;SDS011;75728;51.856;6.314;2024-02-16T04:51:06;1.58;;;0.38;;
42346;SDS011;75728;51.856;6.314;2024-02-16T04:53:31;0.90;;;0.30;;
42346;SDS011;75728;51.856;6.314;2024-02-16T04:55:57;1.05;;;0.40;;
42346;SDS011;75728;51.856;6.314;2024-02-16T04:58:23;1.38;;;0.40;;
42346;SDS011;75728;51.856;6.314;2024-02-16T05:00:49;1.77;;;0.30;;
42346;SDS011;75728;51.856;6.314;2024-02-16T05:03:14;1.08;;;0.50;;
42346;SDS011;75728;51.856;6.314;2024-02-16T05:05:40;1.83;;;0.40;;
42346;SDS011;75728;51.856;6.314;2024-02-16T05:08:06;0.88;;;0.30;;
42346;SDS011;75728;51.856;6.314;2024-02-16T05:10:32;1.90;;;0.60;;
42346;SDS011;75728;51.856;6.314;2024-02-16T05:12:57;1.77;;;0.40;;
42346;SDS011;75728;51.856;6.314;2024-02-16T05:15:23;0.93;;;0.50;;
42346;SDS011;75728;51.856;6.314;2024-02-16T05:17:49;0.88;;;0.32;;
42346;SDS011;75728;51.856;6.314;2024-02-16T05:20:15;0.60;;;0.22;;
42346;SDS011;75728;51.856;6.314;2024-02-16T05:22:43;0.90;;;0.50;;
42346;SDS011;75728;51.856;6.314;2024-02-16T05:25:13;2.20;;;0.60;;
42346;SDS011;75728;51.856;6.314;2024-02-16T05:27:39;1.38;;;0.50;;
42346;SDS011;75728;51.856;6.314;2024-02-16T05:30:06;1.90;;;0.50;;
42346;SDS011;75728;51.856;6.314;2024-02-16T05:32:34;0.73;;;0.40;;
42346;SDS011;75728;51.856;6.314;2024-02-16T05:35:02;0.98;;;0.30;;
42346;SDS011;75728;51.856;6.314;2024-02-16T05:37:40;2.15;;;0.50;;
42346;SDS011;75728;51.856;6.314;2024-02-16T05:40:09;0.52;;;0.32;;
42346;SDS011;75728;51.856;6.314;2024-02-16T05:42:46;1.02;;;0.40;;
42346;SDS011;75728;51.856;6.314;2024-02-16T05:45:13;0.65;;;0.30;;
42346;SDS011;75728;51.856;6.314;2024-02-16T05:47:42;0.65;;;0.20;;
42346;SDS011;75728;51.856;6.314;2024-02-16T05:50:10;0.32;;;0.30;;
42346;SDS011;75728;51.856;6.314;2024-02-16T05:52:42;0.98;;;0.40;;
42346;SDS011;75728;51.856;6.314;2024-02-16T05:55:09;0.75;;;0.47;;
42346;SDS011;75728;51.856;6.314;2024-02-16T05:57:35;1.25;;;0.20;;
42346;SDS011;75728;51.856;6.314;2024-02-16T06:00:02;0.57;;;0.30;;
42346;SDS011;75728;51.856;6.314;2024-02-16T06:02:30;1.58;;;0.32;;
42346;SDS011;75728;51.856;6.314;2024-02-16T06:04:56;0.70;;;0.30;;
42346;SDS011;75728;51.856;6.314;2024-02-16T06:07:22;1.42;;;0.40;;
42346;SDS011;75728;51.856;6.314;2024-02-16T06:09:48;0.82;;;0.32;;
42346;SDS011;75728;51.856;6.314;2024-02-16T06:12:13;0.85;;;0.25;;
42346;SDS011;75728;51.856;6.314;2024-02-16T06:14:40;1.40;;;0.50;;
42346;SDS011;75728;51.856;6.314;2024-02-16T06:17:06;0.50;;;0.28;;
42346;SDS011;75728;51.856;6.314;2024-02-16T06:19:33;0.60;;;0.30;;
42346;SDS011;75728;51.856;6.314;2024-02-16T06:21:58;0.77;;;0.32;;
42346;SDS011;75728;51.856;6.314;2024-02-16T06:24:24;0.88;;;0.47;;
42346;SDS011;75728;51.856;6.314;2024-02-16T06:26:50;1.27;;;0.50;;
42346;SDS011;75728;51.856;6.314;2024-02-16T06:29:17;1.25;;;0.50;;
42346;SDS011;75728;51.856;6.314;2024-02-16T06:31:44;0.55;;;0.38;;
42346;SDS011;75728;51.856;6.314;2024-02-16T06:34:11;1.17;;;0.30;;
42346;SDS011;75728;51.856;6.314;2024-02-16T06:36:37;0.80;;;0.50;;
42346;SDS011;75728;51.856;6.314;2024-02-16T06:39:02;1.05;;;0.45;;
42346;SDS011;75728;51.856;6.314;2024-02-16T06:41:28;1.42;;;0.50;;
42346;SDS011;75728;51.856;6.314;2024-02-16T06:43:53;0.60;;;0.40;;
42346;SDS011;75728;51.856;6.314;2024-02-16T06:46:19;2.00;;;0.43;;
42346;SDS011;75728;51.856;6.314;2024-02-16T06:48:45;0.90;;;0.52;;
42346;SDS011;75728;51.856;6.314;2024-02-16T06:51:10;1.48;;;0.52;;
42346;SDS011;75728;51.856;6.314;2024-02-16T06:53:36;0.85;;;0.40;;
42346;SDS011;75728;51.856;6.314;2024-02-16T06:56:02;0.40;;;0.30;;
42346;SDS011;75728;51.856;6.314;2024-02-16T06:58:28;0.95;;;0.40;;
42346;SDS011;75728;51.856;6.314;2024-02-16T07:00:54;0.63;;;0.30;;
42346;SDS011;75728;51.856;6.314;2024-02-16T07:03:20;0.70;;;0.32;;
42346;SDS011;75728;51.856;6.314;2024-02-16T07:05:45;0.63;;;0.47;;
42346;SDS011;75728;51.856;6.314;2024-02-16T07:08:11;0.30;;;0.28;;
42346;SDS011;75728;51.856;6.314;2024-02-16T07:10:36;0.32;;;0.30;;
42346;SDS011;75728;51.856;6.314;2024-02-16T07:13:02;0.73;;;0.50;;
42346;SDS011;75728;51.856;6.314;2024-02-16T07:15:28;0.75;;;0.30;;
42346;SDS011;75728;51.856;6.314;2024-02-16T07:17:54;0.73;;;0.30;;
42346;SDS011;75728;51.856;6.314;2024-02-16T07:20:20;1.08;;;0.40;;
42346;SDS011;75728;51.856;6.314;2024-02-16T07:22:45;1.20;;;0.60;;
42346;SDS011;75728;51.856;6.314;2024-02-16T07:25:12;0.52;;;0.32;;
42346;SDS011;75728;51.856;6.314;2024-02-16T07:27:38;0.40;;;0.30;;
42346;SDS011;75728;51.856;6.314;2024-02-16T07:30:04;0.47;;;0.38;;
42346;SDS011;75728;51.856;6.314;2024-02-16T07:32:30;1.05;;;0.43;;
42346;SDS011;75728;51.856;6.314;2024-02-16T07:34:55;0.43;;;0.20;;
42346;SDS011;75728;51.856;6.314;2024-02-16T07:37:21;0.95;;;0.40;;
42346;SDS011;75728;51.856;6.314;2024-02-16T07:39:46;0.77;;;0.32;;
42346;SDS011;75728;51.856;6.314;2024-02-16T07:42:12;2.72;;;1.45;;
42346;SDS011;75728;51.856;6.314;2024-02-16T07:44:38;3.90;;;1.60;;
42346;SDS011;75728;51.856;6.314;2024-02-16T07:47:04;2.65;;;1.38;;
42346;SDS011;75728;51.856;6.314;2024-02-16T07:49:30;3.65;;;1.70;;
42346;SDS011;75728;51.856;6.314;2024-02-16T07:51:56;4.53;;;1.67;;
42346;SDS011;75728;51.856;6.314;2024-02-16T07:54:22;4.43;;;1.60;;
42346;SDS011;75728;51.856;6.314;2024-02-16T07:56:48;3.33;;;1.65;;
42346;SDS011;75728;51.856;6.314;2024-02-16T07:59:14;5.07;;;1.70;;
42346;SDS011;75728;51.856;6.314;2024-02-16T08:01:40;4.78;;;1.52;;
42346;SDS011;75728;51.856;6.314;2024-02-16T08:04:05;4.45;;;1.60;;
42346;SDS011;75728;51.856;6.314;2024-02-16T08:06:31;4.40;;;1.90;;
42346;SDS011;75728;51.856;6.314;2024-02-16T08:08:57;4.53;;;1.67;;
42346;SDS011;75728;51.856;6.314;2024-02-16T08:11:23;5.32;;;1.73;;
42346;SDS011;75728;51.856;6.314;2024-02-16T08:13:48;3.72;;;1.77;;
42346;SDS011;75728;51.856;6.314;2024-02-16T08:16:14;3.33;;;1.60;;
42346;SDS011;75728;51.856;6.314;2024-02-16T08:18:40;4.35;;;1.17;;
42346;SDS011;75728;51.856;6.314;2024-02-16T08:21:08;4.25;;;1.48;;
42346;SDS011;75728;51.856;6.314;2024-02-16T08:23:34;5.03;;;1.70;;
42346;SDS011;75728;51.856;6.314;2024-02-16T08:26:00;4.53;;;1.58;;
42346;SDS011;75728;51.856;6.314;2024-02-16T08:28:25;4.47;;;1.45;;
42346;SDS011;75728;51.856;6.314;2024-02-16T08:30:51;2.63;;;1.70;;
42346;SDS011;75728;51.856;6.314;2024-02-16T08:33:17;4.97;;;1.50;;
42346;SDS011;75728;51.856;6.314;2024-02-16T08:35:43;5.93;;;1.77;;
42346;SDS011;75728;51.856;6.314;2024-02-16T08:38:09;4.32;;;1.80;;
42346;SDS011;75728;51.856;6.314;2024-02-16T08:40:36;3.88;;;1.73;;
42346;SDS011;75728;51.856;6.314;2024-02-16T08:43:03;5.30;;;1.83;;
42346;SDS011;75728;51.856;6.314;2024-02-16T08:45:34;3.45;;;1.77;;
42346;SDS011;75728;51.856;6.314;2024-02-16T08:48:00;5.57;;;1.75;;
42346;SDS011;75728;51.856;6.314;2024-02-16T08:50:28;7.32;;;2.03;;
42346;SDS011;75728;51.856;6.314;2024-02-16T08:52:54;4.88;;;1.90;;
42346;SDS011;75728;51.856;6.314;2024-02-16T08:55:20;4.25;;;2.13;;
42346;SDS011;75728;51.856;6.314;2024-02-16T08:57:45;3.95;;;1.80;;
42346;SDS011;75728;51.856;6.314;2024-02-16T09:00:11;4.32;;;1.67;;
42346;SDS011;75728;51.856;6.314;2024-02-16T09:02:37;4.63;;;2.38;;
42346;SDS011;75728;51.856;6.314;2024-02-16T09:05:03;4.70;;;1.90;;
42346;SDS011;75728;51.856;6.314;2024-02-16T09:07:30;5.38;;;2.08;;
42346;SDS011;75728;51.856;6.314;2024-02-16T09:09:55;5.68;;;1.83;;
42346;SDS011;75728;51.856;6.314;2024-02-16T09:12:21;5.80;;;1.92;;
42346;SDS011;75728;51.856;6.314;2024-02-16T09:14:47;3.85;;;1.83;;
42346;SDS011;75728;51.856;6.314;2024-02-16T09:17:13;4.28;;;1.88;;
42346;SDS011;75728;51.856;6.314;2024-02-16T09:19:38;5.55;;;1.52;;
42346;SDS011;75728;51.856;6.314;2024-02-16T09:22:04;5.20;;;2.00;;
42346;SDS011;75728;51.856;6.314;2024-02-16T09:24:31;5.93;;;2.38;;
42346;SDS011;75728;51.856;6.314;2024-02-16T09:26:57;4.43;;;2.00;;
42346;SDS011;75728;51.856;6.314;2024-02-16T09:29:28;7.38;;;2.05;;
42346;SDS011;75728;51.856;6.314;2024-02-16T09:31:54;6.13;;;2.10;;
42346;SDS011;75728;51.856;6.314;2024-02-16T09:34:19;4.65;;;2.28;;
42346;SDS011;75728;51.856;6.314;2024-02-16T09:36:45;7.13;;;2.10;;
42346;SDS011;75728;51.856;6.314;2024-02-16T09:39:11;5.15;;;2.20;;
42346;SDS011;75728;51.856;6.314;2024-02-16T09:41:36;7.68;;;2.20;;
42346;SDS011;75728;51.856;6.314;2024-02-16T09:44:11;4.05;;;1.98;;
42346;SDS011;75728;51.856;6.314;2024-02-16T09:46:36;6.18;;;2.35;;
42346;SDS011;75728;51.856;6.314;2024-02-16T09:49:02;4.95;;;2.42;;
42346;SDS011;75728;51.856;6.314;2024-02-16T09:51:29;6.65;;;3.05;;
42346;SDS011;75728;51.856;6.314;2024-02-16T09:53:55;6.07;;;2.47;;
42346;SDS011;75728;51.856;6.314;2024-02-16T09:56:21;7.72;;;2.42;;
42346;SDS011;75728;51.856;6.314;2024-02-16T09:58:49;7.13;;;2.40;;
42346;SDS011;75728;51.856;6.314;2024-02-16T10:01:20;4.47;;;1.70;;
42346;SDS011;75728;51.856;6.314;2024-02-16T10:03:49;5.82;;;1.92;;
42346;SDS011;75728;51.856;6.314;2024-02-16T10:06:15;5.45;;;2.13;;
42346;SDS011;75728;51.856;6.314;2024-02-16T10:08:48;5.82;;;2.10;;
42346;SDS011;75728;51.856;6.314;2024-02-16T10:11:19;5.97;;;2.80;;
42346;SDS011;75728;51.856;6.314;2024-02-16T10:16:21;5.00;;;2.22;;
42346;SDS011;75728;51.856;6.314;2024-02-16T10:18:47;4.93;;;2.05;;
42346;SDS011;75728;51.856;6.314;2024-02-16T10:21:13;5.68;;;2.80;;
42346;SDS011;75728;51.856;6.314;2024-02-16T10:23:38;6.63;;;2.35;;
42346;SDS011;75728;51.856;6.314;2024-02-16T10:26:04;7.63;;;2.20;;
42346;SDS011;75728;51.856;6.314;2024-02-16T10:28:30;4.25;;;2.20;;
42346;SDS011;75728;51.856;6.314;2024-02-16T10:30:59;4.22;;;2.03;;
42346;SDS011;75728;51.856;6.314;2024-02-16T10:35:57;2.65;;;1.90;;
42346;SDS011;75728;51.856;6.314;2024-02-16T10:38:24;5.22;;;1.95;;
42346;SDS011;75728;51.856;6.314;2024-02-16T10:40:51;7.28;;;2.88;;
42346;SDS011;75728;51.856;6.314;2024-02-16T10:43:18;4.68;;;2.30;;
42346;SDS011;75728;51.856;6.314;2024-02-16T10:45:46;6.90;;;2.80;;
42346;SDS011;75728;51.856;6.314;2024-02-16T10:48:14;6.05;;;2.15;;
42346;SDS011;75728;51.856;6.314;2024-02-16T10:50:40;6.00;;;2.63;;
42346;SDS011;75728;51.856;6.314;2024-02-16T10:53:11;5.07;;;2.22;;
42346;SDS011;75728;51.856;6.314;2024-02-16T10:55:44;10.07;;;2.50;;
42346;SDS011;75728;51.856;6.314;2024-02-16T10:58:11;5.82;;;2.60;;
42346;SDS011;75728;51.856;6.314;2024-02-16T11:00:47;7.53;;;2.38;;
42346;SDS011;75728;51.856;6.314;2024-02-16T11:03:17;5.40;;;2.25;;
42346;SDS011;75728;51.856;6.314;2024-02-16T11:05:43;7.38;;;2.70;;
42346;SDS011;75728;51.856;6.314;2024-02-16T11:08:12;5.28;;;2.35;;
42346;SDS011;75728;51.856;6.314;2024-02-16T11:10:39;6.72;;;2.65;;
42346;SDS011;75728;51.856;6.314;2024-02-16T11:13:05;5.28;;;2.17;;
42346;SDS011;75728;51.856;6.314;2024-02-16T11:15:31;6.97;;;2.60;;
42346;SDS011;75728;51.856;6.314;2024-02-16T11:17:58;6.20;;;2.30;;
42346;SDS011;75728;51.856;6.314;2024-02-16T11:20:25;5.93;;;2.65;;
42346;SDS011;75728;51.856;6.314;2024-02-16T11:22:51;5.93;;;2.30;;
42346;SDS011;75728;51.856;6.314;2024-02-16T11:25:32;5.50;;;2.15;;
42346;SDS011;75728;51.856;6.314;2024-02-16T11:27:58;5.75;;;2.30;;
42346;SDS011;75728;51.856;6.314;2024-02-16T11:30:24;6.57;;;2.50;;
42346;SDS011;75728;51.856;6.314;2024-02-16T11:32:53;5.95;;;2.50;;
42346;SDS011;75728;51.856;6.314;2024-02-16T11:35:19;6.00;;;3.20;;
42346;SDS011;75728;51.856;6.314;2024-02-16T11:37:44;4.78;;;2.30;;
42346;SDS011;75728;51.856;6.314;2024-02-16T11:40:12;4.55;;;2.53;;
42346;SDS011;75728;51.856;6.314;2024-02-16T11:42:38;9.85;;;2.40;;
42346;SDS011;75728;51.856;6.314;2024-02-16T11:45:04;6.53;;;3.10;;
42346;SDS011;75728;51.856;6.314;2024-02-16T11:47:31;7.47;;;2.42;;
42346;SDS011;75728;51.856;6.314;2024-02-16T11:50:03;6.10;;;2.70;;
42346;SDS011;75728;51.856;6.314;2024-02-16T11:52:30;7.18;;;2.70;;
42346;SDS011;75728;51.856;6.314;2024-02-16T11:54:56;4.78;;;2.40;;
42346;SDS011;75728;51.856;6.314;2024-02-16T11:57:25;5.97;;;2.30;;
42346;SDS011;75728;51.856;6.314;2024-02-16T11:59:51;4.10;;;2.33;;
42346;SDS011;75728;51.856;6.314;2024-02-16T12:02:18;4.38;;;2.47;;
42346;SDS011;75728;51.856;6.314;2024-02-16T12:04:45;6.47;;;2.88;;
42346;SDS011;75728;51.856;6.314;2024-02-16T12:07:12;7.40;;;2.70;;
42346;SDS011;75728;51.856;6.314;2024-02-16T12:09:39;8.60;;;3.00;;
42346;SDS011;75728;51.856;6.314;2024-02-16T12:12:05;8.45;;;2.70;;
42346;SDS011;75728;51.856;6.314;2024-02-16T12:14:31;5.75;;;2.75;;
42346;SDS011;75728;51.856;6.314;2024-02-16T12:16:58;7.05;;;2.90;;
42346;SDS011;75728;51.856;6.314;2024-02-16T12:19:24;7.47;;;3.50;;
42346;SDS011;75728;51.856;6.314;2024-02-16T12:21:57;6.13;;;2.72;;
42346;SDS011;75728;51.856;6.314;2024-02-16T12:24:22;6.85;;;2.65;;
42346;SDS011;75728;51.856;6.314;2024-02-16T12:26:49;6.75;;;3.15;;
42346;SDS011;75728;51.856;6.314;2024-02-16T12:29:15;7.18;;;2.72;;
42346;SDS011;75728;51.856;6.314;2024-02-16T12:31:41;6.05;;;2.50;;
42346;SDS011;75728;51.856;6.314;2024-02-16T12:34:09;6.55;;;3.42;;
42346;SDS011;75728;51.856;6.314;2024-02-16T12:36:35;6.40;;;3.03;;
42346;SDS011;75728;51.856;6.314;2024-02-16T12:39:05;6.07;;;3.08;;
42346;SDS011;75728;51.856;6.314;2024-02-16T12:41:31;7.65;;;3.17;;
42346;SDS011;75728;51.856;6.314;2024-02-16T12:44:01;7.78;;;3.63;;
42346;SDS011;75728;51.856;6.314;2024-02-16T12:46:27;6.80;;;3.33;;
42346;SDS011;75728;51.856;6.314;2024-02-16T12:48:55;6.07;;;3.40;;
42346;SDS011;75728;51.856;6.314;2024-02-16T12:51:21;6.38;;;3.38;;
42346;SDS011;75728;51.856;6.314;2024-02-16T12:53:46;7.88;;;3.33;;
42346;SDS011;75728;51.856;6.314;2024-02-16T12:56:12;7.53;;;3.60;;
42346;SDS011;75728;51.856;6.314;2024-02-16T12:58:38;8.60;;;3.58;;
42346;SDS011;75728;51.856;6.314;2024-02-16T13:01:04;5.60;;;3.05;;
42346;SDS011;75728;51.856;6.314;2024-02-16T13:03:33;6.30;;;3.42;;
42346;SDS011;75728;51.856;6.314;2024-02-16T13:06:02;8.48;;;3.72;;
42346;SDS011;75728;51.856;6.314;2024-02-16T13:08:29;5.95;;;3.50;;
42346;SDS011;75728;51.856;6.314;2024-02-16T13:10:58;6.22;;;3.85;;
42346;SDS011;75728;51.856;6.314;2024-02-16T13:13:24;6.50;;;3.40;;
42346;SDS011;75728;51.856;6.314;2024-02-16T13:15:49;8.50;;;3.40;;
42346;SDS011;75728;51.856;6.314;2024-02-16T13:18:15;7.85;;;3.60;;
42346;SDS011;75728;51.856;6.314;2024-02-16T13:20:42;5.35;;;3.33;;
42346;SDS011;75728;51.856;6.314;2024-02-16T13:23:08;5.88;;;3.70;;
42346;SDS011;75728;51.856;6.314;2024-02-16T13:25:34;5.43;;;3.22;;
42346;SDS011;75728;51.856;6.314;2024-02-16T13:28:01;5.47;;;3.08;;
42346;SDS011;75728;51.856;6.314;2024-02-16T13:30:27;6.20;;;3.17;;
42346;SDS011;75728;51.856;6.314;2024-02-16T13:32:53;5.53;;;3.83;;
42346;SDS011;75728;51.856;6.314;2024-02-16T13:35:19;7.15;;;3.38;;
42346;SDS011;75728;51.856;6.314;2024-02-16T13:37:45;5.50;;;3.42;;
42346;SDS011;75728;51.856;6.314;2024-02-16T13:40:10;6.07;;;3.33;;
42346;SDS011;75728;51.856;6.314;2024-02-16T13:42:40;6.05;;;3.40;;
42346;SDS011;75728;51.856;6.314;2024-02-16T13:45:07;8.82;;;3.45;;
42346;SDS011;75728;51.856;6.314;2024-02-16T13:47:33;5.18;;;2.95;;
42346;SDS011;75728;51.856;6.314;2024-02-16T13:49:59;4.60;;;2.60;;
42346;SDS011;75728;51.856;6.314;2024-02-16T13:52:25;3.65;;;2.40;;
42346;SDS011;75728;51.856;6.314;2024-02-16T13:54:51;4.70;;;2.92;;
42346;SDS011;75728;51.856;6.314;2024-02-16T13:57:17;4.28;;;3.40;;
42346;SDS011;75728;51.856;6.314;2024-02-16T13:59:43;4.05;;;2.40;;
42346;SDS011;75728;51.856;6.314;2024-02-16T14:02:09;3.63;;;2.17;;
42346;SDS011;75728;51.856;6.314;2024-02-16T14:04:35;3.33;;;2.13;;
42346;SDS011;75728;51.856;6.314;2024-02-16T14:07:01;3.03;;;2.17;;
42346;SDS011;75728;51.856;6.314;2024-02-16T14:09:27;3.25;;;2.15;;
42346;SDS011;75728;51.856;6.314;2024-02-16T14:11:53;4.07;;;2.58;;
42346;SDS011;75728;51.856;6.314;2024-02-16T14:14:20;4.53;;;3.00;;
42346;SDS011;75728;51.856;6.314;2024-02-16T14:16:46;6.05;;;3.60;;
42346;SDS011;75728;51.856;6.314;2024-02-16T14:19:12;4.78;;;3.08;;
42346;SDS011;75728;51.856;6.314;2024-02-16T14:21:38;4.47;;;3.20;;
42346;SDS011;75728;51.856;6.314;2024-02-16T14:24:03;5.30;;;3.55;;
42346;SDS011;75728;51.856;6.314;2024-02-16T14:26:29;4.40;;;3.05;;
42346;SDS011;75728;51.856;6.314;2024-02-16T14:28:55;5.03;;;3.00;;
42346;SDS011;75728;51.856;6.314;2024-02-16T14:31:21;3.50;;;2.83;;
42346;SDS011;75728;51.856;6.314;2024-02-16T14:33:49;4.57;;;3.30;;
42346;SDS011;75728;51.856;6.314;2024-02-16T14:36:15;4.57;;;2.88;;
42346;SDS011;75728;51.856;6.314;2024-02-16T14:38:41;4.22;;;2.70;;
42346;SDS011;75728;51.856;6.314;2024-02-16T14:41:06;4.70;;;2.90;;
42346;SDS011;75728;51.856;6.314;2024-02-16T14:43:33;4.25;;;2.83;;
42346;SDS011;75728;51.856;6.314;2024-02-16T14:45:59;3.70;;;2.55;;
42346;SDS011;75728;51.856;6.314;2024-02-16T14:48:25;4.53;;;3.10;;